Time;durP1;ratioP1;P1;durP2;ratioP2;P2;SDS_P1;SDS_P2;PMS_P1;PMS_P2;Temp;Humidity;BMP_temperature;BMP_pressure;BME280_temperature;BME280_humidity;BME280_pressure;Samples;Min_cycle;Max_cycle;Signal;HPM_P1;HPM_P2
2023/12/17 00:01:05;;;;;;;12.70;5.47;;;;;;;;;;5007868;28;20041;-60
2023/12/17 00:03:31;;;;;;;14.73;5.40;;;;;;;;;;5006204;28;20021;-60
2023/12/17 00:05:58;;;;;;;12.10;6.15;;;;;;;;;;5007336;28;20041;-60
2023/12/17 00:08:24;;;;;;;10.00;5.53;;;;;;;;;;5007683;28;20034;-60
2023/12/17 00:10:50;;;;;;;11.02;4.80;;;;;;;;;;5007752;28;20034;-60
2023/12/17 00:13:16;;;;;;;14.02;5.32;;;;;;;;;;5008235;28;20029;-60
2023/12/17 00:15:43;;;;;;;14.23;4.63;;;;;;;;;;5008112;28;20034;-60
2023/12/17 00:18:09;;;;;;;15.10;5.50;;;;;;;;;;5006814;28;20034;-60
2023/12/17 00:20:35;;;;;;;16.17;5.13;;;;;;;;;;5007833;28;20025;-60
2023/12/17 00:23:04;;;;;;;9.98;5.47;;;;;;;;;;5007891;28;20026;-60
2023/12/17 00:25:30;;;;;;;10.30;4.85;;;;;;;;;;5008203;28;20033;-60
2023/12/17 00:27:56;;;;;;;7.72;4.47;;;;;;;;;;5008064;28;20025;-60
2023/12/17 00:30:22;;;;;;;11.82;5.70;;;;;;;;;;5006802;28;20849;-60
2023/12/17 00:32:48;;;;;;;12.35;4.93;;;;;;;;;;5007519;28;20091;-60
2023/12/17 00:35:14;;;;;;;11.07;4.93;;;;;;;;;;5008047;28;20026;-60
2023/12/17 00:37:40;;;;;;;13.95;4.80;;;;;;;;;;5007409;28;20107;-60
2023/12/17 00:40:07;;;;;;;10.90;4.20;;;;;;;;;;5007118;28;20760;-60
2023/12/17 00:42:33;;;;;;;12.65;5.55;;;;;;;;;;5007067;28;20509;-60
2023/12/17 00:44:59;;;;;;;15.35;5.03;;;;;;;;;;5007294;28;20037;-60
2023/12/17 00:47:25;;;;;;;12.50;4.78;;;;;;;;;;5007323;28;20030;-60
2023/12/17 00:49:52;;;;;;;10.75;4.90;;;;;;;;;;5007769;28;21842;-60
2023/12/17 00:52:22;;;;;;;15.90;5.13;;;;;;;;;;5006363;28;20045;-60
2023/12/17 00:54:48;;;;;;;12.68;5.13;;;;;;;;;;5007345;28;20034;-60
2023/12/17 00:57:14;;;;;;;11.63;4.60;;;;;;;;;;5006933;28;20037;-60
2023/12/17 00:59:40;;;;;;;14.82;5.65;;;;;;;;;;5007069;28;20036;-60
2023/12/17 01:02:06;;;;;;;12.93;5.90;;;;;;;;;;5007674;28;20466;-60
2023/12/17 01:04:32;;;;;;;10.50;4.50;;;;;;;;;;5006793;28;20058;-60
2023/12/17 01:06:58;;;;;;;13.63;5.50;;;;;;;;;;5006101;28;20033;-60
2023/12/17 01:09:24;;;;;;;13.23;4.80;;;;;;;;;;5006643;28;21171;-60
2023/12/17 01:11:50;;;;;;;10.73;4.70;;;;;;;;;;5006818;28;20111;-60
2023/12/17 01:14:16;;;;;;;11.48;4.88;;;;;;;;;;5007198;28;20108;-60
2023/12/17 01:16:43;;;;;;;15.27;4.80;;;;;;;;;;5006688;28;20034;-60
2023/12/17 01:19:09;;;;;;;9.27;4.78;;;;;;;;;;5007195;28;21631;-60
2023/12/17 01:21:35;;;;;;;10.02;4.60;;;;;;;;;;5006368;28;20032;-60
2023/12/17 01:24:01;;;;;;;10.57;4.55;;;;;;;;;;5009411;28;20704;-60
2023/12/17 01:26:29;;;;;;;13.27;5.00;;;;;;;;;;5007219;28;20849;-60
2023/12/17 01:28:55;;;;;;;11.73;4.90;;;;;;;;;;5006927;28;20048;-60
2023/12/17 01:31:21;;;;;;;11.18;4.47;;;;;;;;;;5007492;28;20967;-60
2023/12/17 01:33:47;;;;;;;12.15;4.75;;;;;;;;;;5006353;28;20030;-60
2023/12/17 01:36:13;;;;;;;9.23;4.93;;;;;;;;;;5006472;28;21742;-60
2023/12/17 01:38:39;;;;;;;13.02;5.07;;;;;;;;;;5006662;28;20954;-60
2023/12/17 01:41:06;;;;;;;11.13;4.95;;;;;;;;;;5006771;28;20030;-60
2023/12/17 01:43:33;;;;;;;17.08;5.28;;;;;;;;;;5006129;28;20083;-61
2023/12/17 01:45:59;;;;;;;8.38;4.32;;;;;;;;;;5006221;28;20041;-60
2023/12/17 01:48:26;;;;;;;12.15;4.38;;;;;;;;;;5006151;28;20099;-60
2023/12/17 01:50:52;;;;;;;11.35;5.00;;;;;;;;;;5005711;28;20022;-60
2023/12/17 01:53:18;;;;;;;12.43;5.15;;;;;;;;;;5005006;28;20542;-60
2023/12/17 01:55:46;;;;;;;9.93;3.85;;;;;;;;;;5006116;28;20026;-60
2023/12/17 01:58:12;;;;;;;10.75;4.07;;;;;;;;;;5005968;28;21043;-60
2023/12/17 02:00:38;;;;;;;11.15;4.82;;;;;;;;;;5006390;28;20030;-60
2023/12/17 02:03:05;;;;;;;12.40;4.63;;;;;;;;;;5006437;28;20029;-60
2023/12/17 02:05:34;;;;;;;14.85;4.63;;;;;;;;;;5006544;28;20888;-60
2023/12/17 02:08:01;;;;;;;10.07;4.13;;;;;;;;;;5005832;28;20037;-60
2023/12/17 02:10:27;;;;;;;14.55;4.20;;;;;;;;;;5006677;28;20057;-60
2023/12/17 02:12:53;;;;;;;11.15;4.10;;;;;;;;;;5005907;28;20087;-60
2023/12/17 02:15:19;;;;;;;12.55;4.80;;;;;;;;;;5006014;28;20167;-60
2023/12/17 02:17:45;;;;;;;10.30;4.47;;;;;;;;;;5007906;28;20034;-60
2023/12/17 02:20:12;;;;;;;8.88;4.45;;;;;;;;;;5010151;28;20722;-60
2023/12/17 02:22:38;;;;;;;9.15;4.03;;;;;;;;;;5009733;28;20049;-60
2023/12/17 02:25:04;;;;;;;9.38;4.00;;;;;;;;;;5009993;28;20029;-60
2023/12/17 02:27:30;;;;;;;10.73;4.25;;;;;;;;;;5010513;28;20049;-60
2023/12/17 02:29:56;;;;;;;12.13;4.50;;;;;;;;;;5010157;28;20632;-60
2023/12/17 02:32:23;;;;;;;8.80;4.03;;;;;;;;;;5010444;28;20037;-60
2023/12/17 02:34:49;;;;;;;10.50;4.22;;;;;;;;;;5009564;28;20432;-60
2023/12/17 02:37:16;;;;;;;8.43;3.90;;;;;;;;;;5009878;28;20108;-60
2023/12/17 02:39:42;;;;;;;8.18;3.67;;;;;;;;;;5009734;28;20122;-60
2023/12/17 02:42:08;;;;;;;12.25;4.90;;;;;;;;;;5010082;28;20140;-60
2023/12/17 02:44:34;;;;;;;9.20;4.05;;;;;;;;;;5009975;28;20042;-60
2023/12/17 02:47:00;;;;;;;14.18;4.05;;;;;;;;;;5009175;28;20088;-60
2023/12/17 02:49:26;;;;;;;9.40;4.07;;;;;;;;;;5010057;28;20408;-60
2023/12/17 02:51:53;;;;;;;12.63;4.47;;;;;;;;;;5008983;28;20165;-60
2023/12/17 02:54:19;;;;;;;11.38;3.70;;;;;;;;;;5009336;28;20080;-60
2023/12/17 02:56:45;;;;;;;12.40;4.30;;;;;;;;;;5009011;28;20392;-60
2023/12/17 02:59:12;;;;;;;8.88;4.00;;;;;;;;;;5009227;28;20108;-60
2023/12/17 03:01:41;;;;;;;9.50;4.05;;;;;;;;;;5009428;28;20044;-60
2023/12/17 03:04:08;;;;;;;11.77;4.25;;;;;;;;;;5008732;28;20026;-60
2023/12/17 03:06:34;;;;;;;12.55;4.28;;;;;;;;;;5008697;28;20083;-60
2023/12/17 03:09:00;;;;;;;13.50;4.25;;;;;;;;;;5009161;28;20036;-60
2023/12/17 03:11:26;;;;;;;12.80;4.25;;;;;;;;;;5008475;28;20056;-60
2023/12/17 03:13:52;;;;;;;10.38;3.95;;;;;;;;;;5008963;28;20041;-60
2023/12/17 03:16:18;;;;;;;13.48;4.32;;;;;;;;;;5008630;28;20040;-60
2023/12/17 03:18:44;;;;;;;9.38;3.90;;;;;;;;;;5007608;28;20047;-60
2023/12/17 03:21:12;;;;;;;12.98;4.75;;;;;;;;;;5008362;28;20568;-60
2023/12/17 03:23:38;;;;;;;10.88;3.90;;;;;;;;;;5008857;28;20025;-60
2023/12/17 03:26:04;;;;;;;15.27;4.47;;;;;;;;;;5008631;28;20025;-60
2023/12/17 03:28:30;;;;;;;9.02;3.90;;;;;;;;;;5008204;28;20034;-60
2023/12/17 03:30:56;;;;;;;9.48;3.78;;;;;;;;;;5008470;28;20080;-60
2023/12/17 03:33:23;;;;;;;10.82;3.83;;;;;;;;;;5008570;28;20116;-60
2023/12/17 03:35:49;;;;;;;7.95;3.55;;;;;;;;;;5008469;28;20033;-60
2023/12/17 03:38:15;;;;;;;11.05;4.22;;;;;;;;;;5007772;28;20037;-60
2023/12/17 03:40:41;;;;;;;8.90;4.25;;;;;;;;;;5008659;28;20025;-60
2023/12/17 03:43:08;;;;;;;10.80;3.90;;;;;;;;;;5007838;28;20029;-60
2023/12/17 03:45:35;;;;;;;11.57;4.45;;;;;;;;;;5008470;28;20112;-60
2023/12/17 03:48:02;;;;;;;12.38;3.55;;;;;;;;;;5007274;28;20117;-60
2023/12/17 03:50:28;;;;;;;12.35;4.00;;;;;;;;;;5007911;28;21945;-60
2023/12/17 03:52:54;;;;;;;11.10;4.35;;;;;;;;;;5008156;28;20119;-60
2023/12/17 03:55:20;;;;;;;11.40;4.28;;;;;;;;;;5007706;28;20045;-60
2023/12/17 03:57:47;;;;;;;9.85;4.07;;;;;;;;;;5008176;28;20131;-60
2023/12/17 04:00:13;;;;;;;9.35;4.35;;;;;;;;;;5008375;28;20033;-60
2023/12/17 04:02:39;;;;;;;11.40;4.38;;;;;;;;;;5007745;28;20329;-60
2023/12/17 04:05:06;;;;;;;10.88;4.20;;;;;;;;;;5008350;28;20026;-60
2023/12/17 04:07:32;;;;;;;11.05;4.38;;;;;;;;;;5007873;28;21190;-60
2023/12/17 04:09:58;;;;;;;11.23;4.28;;;;;;;;;;5008050;28;20529;-60
2023/12/17 04:12:24;;;;;;;11.75;4.50;;;;;;;;;;5011425;28;20034;-60
2023/12/17 04:14:51;;;;;;;12.15;4.15;;;;;;;;;;5008486;28;20036;-60
2023/12/17 04:17:17;;;;;;;11.43;4.45;;;;;;;;;;5004299;28;20046;-60
2023/12/17 04:19:43;;;;;;;11.15;4.68;;;;;;;;;;5007380;28;20064;-60
2023/12/17 04:22:09;;;;;;;15.40;4.93;;;;;;;;;;5007838;28;20040;-60
2023/12/17 04:24:35;;;;;;;12.88;4.15;;;;;;;;;;5008215;28;20044;-60
2023/12/17 04:27:01;;;;;;;11.18;4.22;;;;;;;;;;5008258;28;20091;-60
2023/12/17 04:29:27;;;;;;;10.05;4.90;;;;;;;;;;5008048;28;20049;-60
2023/12/17 04:31:53;;;;;;;12.00;5.40;;;;;;;;;;5007453;28;20040;-60
2023/12/17 04:34:19;;;;;;;9.20;4.93;;;;;;;;;;5007682;28;20033;-60
2023/12/17 04:36:45;;;;;;;12.57;4.72;;;;;;;;;;5007979;28;20513;-60
2023/12/17 04:39:11;;;;;;;8.40;4.15;;;;;;;;;;5008138;28;20512;-60
2023/12/17 04:41:38;;;;;;;11.88;4.45;;;;;;;;;;5007683;28;20702;-60
2023/12/17 04:44:04;;;;;;;10.50;4.40;;;;;;;;;;5008152;28;20032;-60
2023/12/17 04:46:31;;;;;;;11.93;5.30;;;;;;;;;;5007245;28;20099;-60
2023/12/17 04:48:57;;;;;;;9.82;4.50;;;;;;;;;;5007996;28;20033;-60
2023/12/17 04:51:23;;;;;;;12.82;4.90;;;;;;;;;;5007509;28;20064;-60
2023/12/17 04:53:50;;;;;;;13.93;5.35;;;;;;;;;;5007298;28;20112;-60
2023/12/17 04:56:16;;;;;;;15.13;5.82;;;;;;;;;;5007579;28;20148;-60
2023/12/17 04:58:42;;;;;;;13.75;5.47;;;;;;;;;;5006880;28;20033;-60
2023/12/17 05:01:08;;;;;;;13.02;5.38;;;;;;;;;;5007648;28;20100;-60
2023/12/17 05:03:36;;;;;;;14.00;4.93;;;;;;;;;;5007569;28;20026;-60
2023/12/17 05:06:02;;;;;;;13.25;4.95;;;;;;;;;;5006836;28;20030;-60
2023/12/17 05:08:28;;;;;;;13.90;5.40;;;;;;;;;;5007600;28;20772;-60
2023/12/17 05:10:54;;;;;;;15.27;5.22;;;;;;;;;;5007351;28;20706;-60
2023/12/17 05:13:20;;;;;;;10.82;5.05;;;;;;;;;;5006781;28;20029;-60
2023/12/17 05:15:46;;;;;;;10.15;4.30;;;;;;;;;;5006638;28;20783;-60
2023/12/17 05:18:13;;;;;;;13.77;6.32;;;;;;;;;;5006748;28;20037;-60
2023/12/17 05:20:39;;;;;;;12.20;4.80;;;;;;;;;;5007389;28;20481;-60
2023/12/17 05:23:05;;;;;;;10.40;5.10;;;;;;;;;;5006662;28;20037;-60
2023/12/17 05:25:31;;;;;;;13.88;4.70;;;;;;;;;;5007076;28;20706;-60
2023/12/17 05:27:57;;;;;;;8.90;4.68;;;;;;;;;;5006851;28;20065;-60
2023/12/17 05:30:23;;;;;;;16.02;6.40;;;;;;;;;;5006732;28;20033;-60
2023/12/17 05:32:50;;;;;;;11.15;5.22;;;;;;;;;;5007097;28;20099;-60
2023/12/17 05:35:16;;;;;;;15.57;5.63;;;;;;;;;;5007419;28;20716;-60
2023/12/17 05:37:42;;;;;;;21.70;6.47;;;;;;;;;;5006704;28;20786;-60
2023/12/17 05:40:08;;;;;;;17.45;5.97;;;;;;;;;;5007476;28;20521;-60
2023/12/17 05:42:34;;;;;;;14.77;5.97;;;;;;;;;;5006212;28;20076;-60
2023/12/17 05:45:01;;;;;;;16.25;5.65;;;;;;;;;;5007095;28;20571;-60
2023/12/17 05:47:27;;;;;;;14.48;6.10;;;;;;;;;;5006735;28;20400;-60
2023/12/17 05:49:53;;;;;;;12.40;5.70;;;;;;;;;;5007106;28;20025;-60
2023/12/17 05:52:19;;;;;;;11.05;5.40;;;;;;;;;;5006601;28;20041;-60
2023/12/17 05:54:45;;;;;;;13.60;5.45;;;;;;;;;;5006489;28;20131;-60
2023/12/17 05:57:11;;;;;;;14.73;5.65;;;;;;;;;;5006421;28;20033;-60
2023/12/17 05:59:37;;;;;;;9.90;5.05;;;;;;;;;;5006626;28;20045;-60
2023/12/17 06:02:04;;;;;;;16.33;6.00;;;;;;;;;;5007001;28;20988;-60
2023/12/17 06:04:30;;;;;;;10.35;4.90;;;;;;;;;;5006887;28;20730;-60
2023/12/17 06:06:56;;;;;;;15.90;5.47;;;;;;;;;;5006358;28;20102;-60
2023/12/17 06:09:23;;;;;;;11.85;5.18;;;;;;;;;;5006597;28;20834;-60
2023/12/17 06:11:49;;;;;;;14.88;5.85;;;;;;;;;;5006153;28;20025;-60
2023/12/17 06:14:16;;;;;;;15.48;5.53;;;;;;;;;;5006153;28;20437;-60
2023/12/17 06:16:43;;;;;;;21.20;5.97;;;;;;;;;;5005798;28;20124;-60
2023/12/17 06:19:09;;;;;;;14.65;5.72;;;;;;;;;;5006898;28;20111;-60
2023/12/17 06:21:35;;;;;;;14.57;6.20;;;;;;;;;;5006116;28;20025;-60
2023/12/17 06:24:02;;;;;;;13.77;6.25;;;;;;;;;;5006198;28;20034;-60
2023/12/17 06:26:28;;;;;;;13.38;6.30;;;;;;;;;;5005815;28;20710;-60
2023/12/17 06:28:54;;;;;;;14.02;6.78;;;;;;;;;;5005405;28;20037;-60
2023/12/17 06:31:20;;;;;;;13.57;7.38;;;;;;;;;;5006099;28;20037;-60
2023/12/17 06:33:46;;;;;;;14.45;6.85;;;;;;;;;;5006275;28;20052;-60
2023/12/17 06:36:12;;;;;;;11.90;6.40;;;;;;;;;;5006281;28;20029;-60
2023/12/17 06:38:42;;;;;;;17.55;7.00;;;;;;;;;;5006489;28;21831;-60
2023/12/17 06:41:08;;;;;;;14.82;7.07;;;;;;;;;;5006177;28;20061;-60
2023/12/17 06:43:36;;;;;;;10.73;6.68;;;;;;;;;;5005426;28;20877;-60
2023/12/17 06:46:02;;;;;;;13.05;7.20;;;;;;;;;;5006282;28;20022;-60
2023/12/17 06:48:28;;;;;;;17.88;7.35;;;;;;;;;;5006287;28;20026;-60
2023/12/17 06:50:54;;;;;;;12.48;7.28;;;;;;;;;;5006037;28;20112;-60
2023/12/17 06:53:20;;;;;;;13.48;7.60;;;;;;;;;;5006050;28;20999;-60
2023/12/17 06:55:46;;;;;;;13.32;7.97;;;;;;;;;;5005775;28;20113;-60
2023/12/17 06:58:13;;;;;;;14.63;7.10;;;;;;;;;;5006563;28;20033;-60
2023/12/17 07:00:39;;;;;;;14.98;8.25;;;;;;;;;;5006625;28;20041;-60
2023/12/17 07:03:05;;;;;;;16.77;7.40;;;;;;;;;;5005948;28;20151;-60
2023/12/17 07:05:31;;;;;;;13.65;6.95;;;;;;;;;;5008584;28;20157;-60
2023/12/17 07:07:57;;;;;;;13.40;6.10;;;;;;;;;;5009886;28;20085;-60
2023/12/17 07:10:23;;;;;;;15.20;5.32;;;;;;;;;;5009569;28;20033;-60
2023/12/17 07:12:49;;;;;;;12.40;5.38;;;;;;;;;;5009256;28;20481;-60
2023/12/17 07:15:15;;;;;;;11.02;5.10;;;;;;;;;;5009416;28;20513;-60
2023/12/17 07:17:41;;;;;;;13.35;4.75;;;;;;;;;;5009179;28;20033;-60
2023/12/17 07:20:08;;;;;;;14.55;5.20;;;;;;;;;;5009361;28;20068;-60
2023/12/17 07:22:34;;;;;;;15.52;5.50;;;;;;;;;;5009151;28;20595;-60
2023/12/17 07:25:00;;;;;;;10.77;5.35;;;;;;;;;;5008581;28;20034;-60
2023/12/17 07:27:27;;;;;;;12.60;5.57;;;;;;;;;;5009289;28;20041;-60
2023/12/17 07:29:53;;;;;;;15.15;5.75;;;;;;;;;;5011877;28;20045;-60
2023/12/17 07:32:19;;;;;;;12.05;5.43;;;;;;;;;;5009197;28;20034;-60
2023/12/17 07:34:45;;;;;;;14.13;5.72;;;;;;;;;;5008539;28;21071;-60
2023/12/17 07:37:11;;;;;;;16.15;5.63;;;;;;;;;;5009070;28;20033;-60
2023/12/17 07:39:37;;;;;;;12.73;6.22;;;;;;;;;;5007938;28;20030;-60
2023/12/17 07:42:03;;;;;;;13.85;5.05;;;;;;;;;;5008704;28;20428;-60
2023/12/17 07:44:30;;;;;;;14.13;6.43;;;;;;;;;;5008254;28;20068;-60
2023/12/17 07:46:57;;;;;;;14.50;5.95;;;;;;;;;;5008868;28;20029;-60
2023/12/17 07:49:23;;;;;;;16.20;5.72;;;;;;;;;;5008775;28;20029;-60
2023/12/17 07:51:49;;;;;;;15.70;6.47;;;;;;;;;;5008502;28;20030;-60
2023/12/17 07:54:16;;;;;;;14.15;5.60;;;;;;;;;;5008909;28;20112;-60
2023/12/17 07:56:42;;;;;;;14.48;5.72;;;;;;;;;;5008020;28;20034;-60
2023/12/17 07:59:09;;;;;;;12.82;6.50;;;;;;;;;;5008625;28;20064;-60
2023/12/17 08:01:35;;;;;;;15.57;6.53;;;;;;;;;;5008681;28;20030;-60
2023/12/17 08:04:01;;;;;;;12.90;6.32;;;;;;;;;;5008934;28;20021;-60
2023/12/17 08:06:27;;;;;;;14.63;5.78;;;;;;;;;;5007864;28;20481;-60
2023/12/17 08:08:54;;;;;;;16.92;5.78;;;;;;;;;;5007748;28;20685;-60
2023/12/17 08:11:20;;;;;;;16.10;5.90;;;;;;;;;;5008141;28;20488;-60
2023/12/17 08:13:47;;;;;;;16.60;5.15;;;;;;;;;;5008602;28;20080;-60
2023/12/17 08:16:13;;;;;;;15.02;6.22;;;;;;;;;;5008058;28;20029;-60
2023/12/17 08:18:39;;;;;;;12.32;5.30;;;;;;;;;;5008629;28;20148;-60
2023/12/17 08:21:05;;;;;;;14.32;5.22;;;;;;;;;;5007980;28;20755;-60
2023/12/17 08:23:31;;;;;;;14.68;4.90;;;;;;;;;;5007720;28;20669;-60
2023/12/17 08:25:57;;;;;;;12.00;4.72;;;;;;;;;;5008423;28;20033;-60
2023/12/17 08:28:24;;;;;;;21.42;6.53;;;;;;;;;;5007953;28;21264;-60
2023/12/17 08:30:50;;;;;;;12.68;6.85;;;;;;;;;;5008062;28;20052;-60
2023/12/17 08:33:16;;;;;;;13.07;6.13;;;;;;;;;;5008192;28;20065;-61
2023/12/17 08:35:44;;;;;;;20.05;6.18;;;;;;;;;;5007873;28;20171;-60
2023/12/17 08:38:10;;;;;;;16.88;6.60;;;;;;;;;;5007338;28;20495;-60
2023/12/17 08:40:37;;;;;;;14.95;7.53;;;;;;;;;;5007909;28;20667;-60
2023/12/17 08:43:04;;;;;;;14.57;6.97;;;;;;;;;;5007531;28;20036;-60
2023/12/17 08:45:31;;;;;;;20.48;7.93;;;;;;;;;;5007724;28;21711;-60
2023/12/17 08:47:57;;;;;;;17.83;7.93;;;;;;;;;;5007560;28;20033;-60
2023/12/17 08:50:23;;;;;;;18.48;8.05;;;;;;;;;;5007163;28;20030;-60
2023/12/17 08:52:49;;;;;;;19.90;8.48;;;;;;;;;;5007970;28;20067;-60
2023/12/17 08:55:15;;;;;;;19.95;8.73;;;;;;;;;;5007459;28;20136;-60
2023/12/17 08:57:41;;;;;;;14.82;8.77;;;;;;;;;;5007861;28;20033;-60
2023/12/17 09:00:08;;;;;;;19.40;10.00;;;;;;;;;;5007681;28;20021;-60
2023/12/17 09:02:37;;;;;;;24.40;9.98;;;;;;;;;;5006249;28;20485;-60
2023/12/17 09:05:03;;;;;;;18.35;8.50;;;;;;;;;;5007213;28;20083;-60
2023/12/17 09:07:29;;;;;;;16.30;9.35;;;;;;;;;;5006884;28;20038;-60
2023/12/17 09:09:55;;;;;;;20.83;9.32;;;;;;;;;;5007124;28;20053;-60
2023/12/17 09:12:21;;;;;;;22.52;10.13;;;;;;;;;;5006734;28;20125;-60
2023/12/17 09:14:48;;;;;;;25.63;11.05;;;;;;;;;;5007314;28;20033;-60
2023/12/17 09:17:14;;;;;;;17.50;9.70;;;;;;;;;;5006383;28;20485;-60
2023/12/17 09:19:40;;;;;;;21.30;9.48;;;;;;;;;;5010180;28;20069;-60
2023/12/17 09:22:06;;;;;;;17.73;8.93;;;;;;;;;;5006609;28;20521;-60
2023/12/17 09:24:33;;;;;;;26.60;10.50;;;;;;;;;;5006751;28;20048;-60
2023/12/17 09:27:00;;;;;;;21.05;9.65;;;;;;;;;;5005758;28;20037;-60
2023/12/17 09:29:26;;;;;;;29.88;10.90;;;;;;;;;;5007072;28;20029;-60
2023/12/17 09:31:52;;;;;;;22.08;8.82;;;;;;;;;;5006302;28;21312;-60
2023/12/17 09:34:19;;;;;;;19.65;8.88;;;;;;;;;;5006756;28;20563;-60
2023/12/17 09:36:45;;;;;;;17.98;8.52;;;;;;;;;;5006380;28;20041;-60
2023/12/17 09:39:11;;;;;;;18.85;8.25;;;;;;;;;;5006012;28;20037;-60
2023/12/17 09:41:37;;;;;;;18.05;9.02;;;;;;;;;;5006260;28;20037;-60
2023/12/17 09:44:07;;;;;;;22.30;8.25;;;;;;;;;;5006412;28;20386;-61
2023/12/17 09:46:33;;;;;;;21.42;8.50;;;;;;;;;;5006389;28;20984;-61
2023/12/17 09:48:59;;;;;;;23.00;8.05;;;;;;;;;;5006298;28;20046;-60
2023/12/17 09:51:27;;;;;;;20.33;9.13;;;;;;;;;;5006467;28;20041;-61
2023/12/17 09:53:57;;;;;;;16.65;7.18;;;;;;;;;;5005923;28;20114;-60
2023/12/17 09:56:24;;;;;;;19.50;7.28;;;;;;;;;;5006655;28;20026;-61
2023/12/17 09:58:50;;;;;;;19.17;6.88;;;;;;;;;;5006833;28;20037;-61
2023/12/17 10:01:16;;;;;;;17.15;7.32;;;;;;;;;;5006287;28;20045;-60
2023/12/17 10:03:42;;;;;;;16.33;7.28;;;;;;;;;;5005083;28;20515;-60
2023/12/17 10:06:08;;;;;;;18.65;6.90;;;;;;;;;;5006045;28;20040;-60
2023/12/17 10:08:34;;;;;;;16.63;6.43;;;;;;;;;;5006342;28;20034;-60
2023/12/17 10:11:01;;;;;;;20.08;6.22;;;;;;;;;;5006260;28;20037;-61
2023/12/17 10:13:27;;;;;;;19.35;6.95;;;;;;;;;;5005867;28;20665;-60
2023/12/17 10:15:54;;;;;;;18.38;7.65;;;;;;;;;;5005853;28;20030;-60
2023/12/17 10:18:20;;;;;;;15.18;7.10;;;;;;;;;;5005223;28;20037;-61
2023/12/17 10:20:46;;;;;;;19.58;6.38;;;;;;;;;;5006312;28;20092;-61
2023/12/17 10:23:13;;;;;;;14.93;6.97;;;;;;;;;;5005733;28;20022;-60
2023/12/17 10:25:39;;;;;;;16.75;6.70;;;;;;;;;;5006325;28;20056;-60
2023/12/17 10:28:06;;;;;;;16.83;6.65;;;;;;;;;;5005202;28;20077;-60
2023/12/17 10:30:33;;;;;;;17.98;6.63;;;;;;;;;;5006481;28;20066;-60
2023/12/17 10:33:00;;;;;;;18.10;7.57;;;;;;;;;;5005883;28;20120;-60
2023/12/17 10:35:26;;;;;;;26.70;8.30;;;;;;;;;;5009767;28;20026;-60
2023/12/17 10:37:54;;;;;;;19.38;9.38;;;;;;;;;;5005288;28;20034;-60
2023/12/17 10:40:21;;;;;;;22.17;9.05;;;;;;;;;;5009209;28;20584;-60
2023/12/17 10:42:49;;;;;;;17.95;9.75;;;;;;;;;;5010021;28;20366;-60
2023/12/17 10:45:17;;;;;;;19.45;10.77;;;;;;;;;;5009269;28;20115;-60
2023/12/17 10:47:45;;;;;;;21.85;11.60;;;;;;;;;;5009767;28;20033;-60
2023/12/17 10:50:11;;;;;;;21.77;12.13;;;;;;;;;;5009468;28;20176;-60
2023/12/17 10:52:41;;;;;;;22.50;13.18;;;;;;;;;;5009923;28;20025;-60
2023/12/17 10:55:07;;;;;;;28.13;15.30;;;;;;;;;;5008642;28;20041;-60
2023/12/17 10:57:35;;;;;;;25.63;14.07;;;;;;;;;;5009083;28;20423;-60
2023/12/17 11:00:02;;;;;;;24.00;14.70;;;;;;;;;;5009004;28;20025;-60
2023/12/17 11:02:29;;;;;;;28.30;17.15;;;;;;;;;;5009116;28;21784;-60
2023/12/17 11:04:57;;;;;;;25.05;15.45;;;;;;;;;;5008522;28;20569;-60
2023/12/17 11:07:23;;;;;;;35.65;16.08;;;;;;;;;;5008480;28;20033;-60
2023/12/17 11:09:49;;;;;;;29.58;16.60;;;;;;;;;;5008670;28;20034;-60
2023/12/17 11:12:19;;;;;;;28.90;16.63;;;;;;;;;;5009388;28;20040;-60
2023/12/17 11:14:45;;;;;;;25.95;16.88;;;;;;;;;;5008358;28;20149;-60
2023/12/17 11:17:12;;;;;;;30.80;16.08;;;;;;;;;;5009111;28;20033;-60
2023/12/17 11:19:57;;;;;;;27.35;15.38;;;;;;;;;;5008139;28;21799;-60
2023/12/17 11:22:23;;;;;;;24.85;14.95;;;;;;;;;;5008905;28;20030;-60
2023/12/17 11:24:54;;;;;;;24.98;14.32;;;;;;;;;;5008455;28;20014;-60
2023/12/17 11:27:23;;;;;;;24.05;15.85;;;;;;;;;;5008787;28;20038;-60
2023/12/17 11:29:50;;;;;;;23.45;14.50;;;;;;;;;;5008308;28;20044;-60
2023/12/17 11:32:17;;;;;;;20.88;13.93;;;;;;;;;;5009390;28;21006;-61
2023/12/17 11:34:48;;;;;;;22.95;14.55;;;;;;;;;;5008388;28;20091;-61
2023/12/17 11:37:16;;;;;;;22.10;14.60;;;;;;;;;;5008770;28;20060;-61
2023/12/17 11:39:43;;;;;;;20.58;13.38;;;;;;;;;;5007532;28;20028;-61
2023/12/17 11:42:09;;;;;;;22.77;13.73;;;;;;;;;;5008579;28;20072;-60
2023/12/17 11:44:35;;;;;;;24.60;13.63;;;;;;;;;;5007534;28;20037;-61
2023/12/17 11:47:01;;;;;;;25.85;12.50;;;;;;;;;;5008728;28;20037;-60
2023/12/17 11:49:27;;;;;;;20.88;12.73;;;;;;;;;;5008251;28;20037;-60
2023/12/17 11:51:54;;;;;;;21.35;12.77;;;;;;;;;;5007750;28;20124;-61
2023/12/17 11:54:20;;;;;;;19.00;12.45;;;;;;;;;;5007294;28;20063;-61
2023/12/17 11:56:47;;;;;;;17.80;12.68;;;;;;;;;;5006358;28;20091;-60
2023/12/17 11:59:13;;;;;;;19.25;12.27;;;;;;;;;;5008385;28;20072;-61
2023/12/17 12:01:40;;;;;;;25.20;12.07;;;;;;;;;;5008232;28;20076;-60
2023/12/17 12:04:06;;;;;;;16.58;11.30;;;;;;;;;;5007272;28;20037;-60
2023/12/17 12:06:32;;;;;;;18.95;11.00;;;;;;;;;;5007083;28;20447;-60
2023/12/17 12:08:59;;;;;;;20.42;11.70;;;;;;;;;;5008084;28;20666;-61
2023/12/17 12:11:33;;;;;;;18.33;11.15;;;;;;;;;;5006791;28;20037;-60
2023/12/17 12:13:59;;;;;;;17.73;10.95;;;;;;;;;;5008158;28;20040;-60
2023/12/17 12:16:25;;;;;;;23.60;12.65;;;;;;;;;;5008428;28;20033;-60
2023/12/17 12:19:04;;;;;;;20.40;11.32;;;;;;;;;;5007655;28;20157;-61
2023/12/17 12:21:30;;;;;;;17.73;11.18;;;;;;;;;;5007557;28;20029;-61
2023/12/17 12:23:57;;;;;;;18.55;12.02;;;;;;;;;;5007624;28;20029;-60
2023/12/17 12:26:24;;;;;;;21.80;12.23;;;;;;;;;;5007613;28;20065;-61
2023/12/17 12:29:00;;;;;;;18.15;12.43;;;;;;;;;;5007947;28;20179;-61
2023/12/17 12:31:27;;;;;;;21.58;12.82;;;;;;;;;;5007226;28;20464;-60
2023/12/17 12:33:54;;;;;;;18.17;12.48;;;;;;;;;;5007127;28;20575;-60
2023/12/17 12:36:20;;;;;;;18.25;12.55;;;;;;;;;;5007505;28;20080;-61
2023/12/17 12:38:46;;;;;;;20.67;13.38;;;;;;;;;;5007430;28;20029;-60
2023/12/17 12:41:12;;;;;;;20.38;14.13;;;;;;;;;;5007382;28;20045;-60
2023/12/17 12:43:42;;;;;;;22.95;13.90;;;;;;;;;;5007059;28;20034;-60
2023/12/17 12:46:08;;;;;;;21.23;13.60;;;;;;;;;;5007518;28;20036;-60
2023/12/17 12:48:36;;;;;;;20.88;13.90;;;;;;;;;;5007238;28;20041;-60
2023/12/17 12:51:02;;;;;;;21.60;14.48;;;;;;;;;;5005916;28;20072;-61
2023/12/17 12:53:28;;;;;;;23.00;14.30;;;;;;;;;;5005376;28;20044;-61
2023/12/17 12:55:54;;;;;;;21.90;14.32;;;;;;;;;;5006962;28;20048;-61
2023/12/17 12:58:20;;;;;;;23.20;14.02;;;;;;;;;;5006979;28;20064;-61
2023/12/17 13:00:47;;;;;;;25.67;15.45;;;;;;;;;;5007174;28;20136;-61
2023/12/17 13:03:13;;;;;;;20.92;14.18;;;;;;;;;;5006132;28;20029;-61
2023/12/17 13:05:40;;;;;;;24.05;15.60;;;;;;;;;;5007432;28;20038;-60
2023/12/17 13:08:06;;;;;;;20.77;15.75;;;;;;;;;;5007166;28;20128;-61
2023/12/17 13:10:33;;;;;;;24.65;14.50;;;;;;;;;;5006553;28;20520;-61
2023/12/17 13:12:59;;;;;;;21.27;15.02;;;;;;;;;;5021871;28;20041;-60
2023/12/17 13:15:25;;;;;;;26.05;15.02;;;;;;;;;;5007244;28;20029;-61
2023/12/17 13:17:51;;;;;;;23.25;14.70;;;;;;;;;;5006768;28;20030;-61
2023/12/17 13:20:17;;;;;;;22.65;15.00;;;;;;;;;;5004260;28;20026;-60
2023/12/17 13:22:43;;;;;;;23.38;15.23;;;;;;;;;;5006377;28;20032;-61
2023/12/17 13:25:09;;;;;;;25.75;15.10;;;;;;;;;;5006799;28;20037;-61
2023/12/17 13:27:36;;;;;;;24.08;16.15;;;;;;;;;;5007135;28;20041;-60
2023/12/17 13:30:03;;;;;;;22.45;14.55;;;;;;;;;;5006895;28;20033;-60
2023/12/17 13:32:29;;;;;;;24.02;16.45;;;;;;;;;;5006495;28;20030;-60
2023/12/17 13:34:55;;;;;;;24.77;15.77;;;;;;;;;;5005897;28;20030;-61
2023/12/17 13:37:21;;;;;;;24.70;15.50;;;;;;;;;;5006599;28;20034;-61
2023/12/17 13:39:47;;;;;;;25.77;15.05;;;;;;;;;;5006683;28;20029;-60
2023/12/17 13:42:13;;;;;;;22.70;14.70;;;;;;;;;;5006551;28;20030;-61
2023/12/17 13:44:39;;;;;;;24.17;14.52;;;;;;;;;;5006057;28;20033;-60
2023/12/17 13:47:05;;;;;;;20.33;13.43;;;;;;;;;;5006317;28;20022;-60
2023/12/17 13:49:38;;;;;;;23.65;14.25;;;;;;;;;;5005920;28;20564;-61
2023/12/17 13:52:08;;;;;;;23.25;13.82;;;;;;;;;;5006589;28;20037;-61
2023/12/17 13:54:34;;;;;;;19.95;13.30;;;;;;;;;;5006300;28;20049;-60
2023/12/17 13:57:00;;;;;;;22.63;13.55;;;;;;;;;;5005812;28;20046;-61
2023/12/17 13:59:26;;;;;;;19.83;12.90;;;;;;;;;;5006406;28;20026;-61
2023/12/17 14:01:53;;;;;;;20.20;13.32;;;;;;;;;;5005749;28;20034;-61
2023/12/17 14:04:19;;;;;;;20.27;12.57;;;;;;;;;;5006224;28;20014;-61
2023/12/17 14:06:45;;;;;;;19.88;13.35;;;;;;;;;;5006068;28;20029;-61
2023/12/17 14:09:11;;;;;;;21.17;13.48;;;;;;;;;;5006182;28;20037;-61
2023/12/17 14:11:40;;;;;;;22.90;14.57;;;;;;;;;;5005554;28;20038;-61
2023/12/17 14:14:06;;;;;;;23.77;15.98;;;;;;;;;;5008284;28;20061;-61
2023/12/17 14:16:32;;;;;;;23.63;14.88;;;;;;;;;;5009330;28;20138;-61
2023/12/17 14:18:59;;;;;;;24.45;15.35;;;;;;;;;;5009878;28;20029;-61
2023/12/17 14:21:26;;;;;;;26.00;15.85;;;;;;;;;;5010540;28;20630;-61
2023/12/17 14:23:54;;;;;;;23.27;14.80;;;;;;;;;;5009360;28;20140;-61